Time;durP1;ratioP1;P1;durP2;ratioP2;P2;SDS_P1;SDS_P2;PMS_P1;PMS_P2;Temp;Humidity;BMP_temperature;BMP_pressure;BME280_temperature;BME280_humidity;BME280_pressure;Samples;Min_cycle;Max_cycle;Signal;HPM_P1;HPM_P2
2023/05/03 00:02:04;;;;;;;138.98;61.22;;;;;;;18.23;43.03;102606.78;5008758;28;20021;-75
2023/05/03 00:04:30;;;;;;;142.13;61.25;;;;;;;18.22;43.84;102612.09;5010908;28;21663;-75
2023/05/03 00:06:56;;;;;;;146.13;62.28;;;;;;;18.22;43.44;102612.94;5023978;28;20430;-75
2023/05/03 00:09:21;;;;;;;135.80;59.85;;;;;;;18.22;43.67;102606.81;4999471;28;20031;-76
2023/05/03 00:11:47;;;;;;;136.18;60.65;;;;;;;18.22;43.90;102617.38;5006777;28;20372;-76
2023/05/03 00:14:12;;;;;;;141.52;62.50;;;;;;;18.22;43.10;102617.38;5038494;28;20021;-75
2023/05/03 00:16:38;;;;;;;134.57;60.55;;;;;;;18.23;43.26;102619.13;5017137;28;20059;-76
2023/05/03 00:19:03;;;;;;;149.50;64.22;;;;;;;18.22;43.45;102617.38;4993568;28;20488;-76
2023/05/03 00:21:28;;;;;;;140.20;62.45;;;;;;;18.22;43.73;102617.38;4998374;28;20059;-77
2023/05/03 00:23:54;;;;;;;136.15;61.35;;;;;;;18.23;43.93;102611.19;5031391;28;20033;-76
2023/05/03 00:26:19;;;;;;;146.70;63.17;;;;;;;18.22;43.61;102609.44;5013575;28;20107;-77
2023/05/03 00:28:44;;;;;;;146.15;63.20;;;;;;;18.24;43.92;102615.56;5015883;28;20112;-76
2023/05/03 00:31:10;;;;;;;142.38;64.00;;;;;;;18.24;43.19;102620.84;5015990;28;20494;-76
2023/05/03 00:33:36;;;;;;;141.20;62.63;;;;;;;18.27;43.23;102619.94;5010450;28;20509;-76
2023/05/03 00:36:09;;;;;;;137.52;61.10;;;;;;;18.27;43.45;102620.81;5034871;28;20081;-76
2023/05/03 00:38:34;;;;;;;134.55;60.78;;;;;;;18.29;43.55;102629.59;5035879;28;20018;-76
2023/05/03 00:41:00;;;;;;;137.77;61.15;;;;;;;18.30;43.53;102615.47;5041829;28;20104;-77
2023/05/03 00:43:26;;;;;;;133.07;62.67;;;;;;;18.28;43.46;102617.25;5042232;23;20533;-73
2023/05/03 00:45:51;;;;;;;141.65;63.58;;;;;;;18.31;43.09;102621.63;5020175;28;20116;-73
2023/05/03 00:48:17;;;;;;;140.82;62.33;;;;;;;18.28;43.38;102611.09;5037123;28;20036;-73
2023/05/03 00:50:43;;;;;;;136.13;60.60;;;;;;;18.32;43.08;102611.00;5020375;28;20112;-72
2023/05/03 00:53:08;;;;;;;138.25;61.90;;;;;;;18.31;43.34;102617.22;5018985;28;20080;-73
2023/05/03 00:55:35;;;;;;;141.15;63.05;;;;;;;18.32;43.12;102612.78;4999160;28;20113;-73
2023/05/03 00:58:00;;;;;;;138.70;63.38;;;;;;;18.33;43.05;102614.53;5018072;28;20053;-73
2023/05/03 01:00:25;;;;;;;152.48;64.20;;;;;;;18.32;43.67;102613.66;4984843;28;20048;-73
2023/05/03 01:02:51;;;;;;;138.20;61.33;;;;;;;18.33;43.26;102614.53;5029633;28;20079;-72
2023/05/03 01:05:16;;;;;;;150.02;63.25;;;;;;;18.30;43.28;102612.81;4991922;28;20105;-73
2023/05/03 01:08:02;;;;;;;136.93;62.35;;;;;;;18.30;43.40;102618.13;4982602;28;20029;-73
2023/05/03 01:10:36;;;;;;;152.48;63.75;;;;;;;18.29;43.45;102613.72;5010426;28;20049;-73
2023/05/03 01:13:13;;;;;;;138.48;61.00;;;;;;;18.28;43.33;102617.25;4999652;28;20064;-73
2023/05/03 01:15:52;;;;;;;149.50;61.92;;;;;;;18.27;43.81;102622.56;4982420;28;20018;-73
2023/05/03 01:18:20;;;;;;;136.63;61.65;;;;;;;18.27;43.26;102622.56;5016917;28;20493;-73
2023/05/03 01:20:48;;;;;;;137.18;61.35;;;;;;;18.25;43.03;102627.91;5013989;28;20033;-73
2023/05/03 01:23:21;;;;;;;139.82;60.63;;;;;;;18.24;42.97;102631.44;5009905;28;20033;-73
2023/05/03 01:25:46;;;;;;;152.00;62.85;;;;;;;18.21;43.08;102627.06;4997890;28;20094;-73
2023/05/03 01:28:11;;;;;;;138.07;62.33;;;;;;;18.18;43.23;102632.41;5013672;28;20026;-73
2023/05/03 01:30:37;;;;;;;142.55;61.65;;;;;;;18.20;43.41;102625.34;5017199;28;20030;-73
2023/05/03 01:33:09;;;;;;;135.75;60.42;;;;;;;18.19;43.67;102628.03;5016958;28;20033;-73
2023/05/03 01:35:49;;;;;;;140.73;60.10;;;;;;;18.18;43.53;102631.56;5019532;28;20399;-73
2023/05/03 01:38:15;;;;;;;142.48;62.30;;;;;;;18.15;43.31;102628.97;5026213;28;20538;-73
2023/05/03 01:40:49;;;;;;;140.07;61.80;;;;;;;18.14;43.48;102632.50;5027676;28;20498;-73
2023/05/03 01:43:15;;;;;;;137.82;59.42;;;;;;;18.14;43.74;102635.16;4996853;28;20041;-73
2023/05/03 01:45:41;;;;;;;138.52;61.40;;;;;;;18.13;43.47;102633.41;5012441;28;20028;-73
2023/05/03 01:48:17;;;;;;;141.50;60.90;;;;;;;18.12;43.10;102637.84;5010714;28;20026;-73
2023/05/03 01:50:43;;;;;;;140.18;60.95;;;;;;;18.08;43.00;102637.00;4989431;28;20531;-73
2023/05/03 01:53:08;;;;;;;141.35;60.88;;;;;;;18.10;43.61;102638.75;4998597;28;20026;-73
2023/05/03 01:55:33;;;;;;;136.30;60.10;;;;;;;18.08;43.22;102634.34;4996800;28;20117;-73
2023/05/03 01:57:59;;;;;;;137.30;60.13;;;;;;;18.08;43.46;102637.00;5017923;28;20057;-73
2023/05/03 02:00:24;;;;;;;136.30;60.42;;;;;;;18.06;43.31;102632.63;4999090;28;20033;-72
2023/05/03 02:02:50;;;;;;;138.48;60.15;;;;;;;18.05;43.60;102631.78;5005902;28;20053;-73
2023/05/03 02:05:15;;;;;;;141.85;60.47;;;;;;;18.06;43.46;102636.16;5021998;28;20029;-73
2023/05/03 02:07:40;;;;;;;132.52;59.67;;;;;;;18.06;43.50;102630.88;5021277;28;20030;-71
2023/05/03 02:10:06;;;;;;;139.07;61.50;;;;;;;18.05;43.29;102629.13;5018534;28;20060;-73
2023/05/03 02:12:32;;;;;;;146.95;61.28;;;;;;;18.03;43.15;102636.19;5024148;28;20175;-73
2023/05/03 02:14:57;;;;;;;141.52;61.75;;;;;;;18.03;43.39;102633.56;5017390;28;20022;-73
2023/05/03 02:17:25;;;;;;;144.32;61.13;;;;;;;18.00;43.70;102632.75;5020036;28;20025;-73
2023/05/03 02:19:51;;;;;;;143.98;62.25;;;;;;;18.00;43.13;102646.84;5001123;28;20422;-73
2023/05/03 02:22:16;;;;;;;136.73;60.25;;;;;;;18.00;43.77;102649.47;5017484;28;20030;-73
2023/05/03 02:24:42;;;;;;;139.25;60.20;;;;;;;18.03;43.35;102656.50;5007507;28;20017;-73
2023/05/03 02:27:07;;;;;;;138.52;61.90;;;;;;;18.03;43.30;102654.72;5017785;28;20450;-73
2023/05/03 02:29:33;;;;;;;136.15;60.50;;;;;;;18.05;43.70;102652.94;5017683;28;20121;-73
2023/05/03 02:31:58;;;;;;;141.55;62.65;;;;;;;18.08;43.51;102657.28;4992174;28;20026;-73
2023/05/03 02:34:23;;;;;;;142.82;61.95;;;;;;;18.11;43.43;102656.38;5021050;28;20399;-72
2023/05/03 02:36:49;;;;;;;142.25;62.72;;;;;;;18.13;43.62;102659.84;5016474;28;20052;-73
2023/05/03 02:39:14;;;;;;;134.68;60.97;;;;;;;18.15;43.12;102658.06;5025900;28;20026;-73
2023/05/03 02:41:39;;;;;;;139.48;62.17;;;;;;;18.15;43.26;102652.78;5004360;28;20399;-73
2023/05/03 02:44:05;;;;;;;145.02;62.35;;;;;;;18.21;43.31;102663.25;5015107;28;20045;-72
2023/05/03 02:46:30;;;;;;;141.80;62.00;;;;;;;18.23;43.33;102656.16;5016682;28;20087;-73
2023/05/03 02:48:55;;;;;;;139.27;61.58;;;;;;;18.26;43.00;102661.41;5023772;28;20108;-73
2023/05/03 02:51:21;;;;;;;142.15;62.92;;;;;;;18.28;42.99;102664.88;5015222;28;20026;-73
2023/05/03 02:53:47;;;;;;;138.80;60.83;;;;;;;18.31;42.58;102664.84;5015309;28;20037;-73
2023/05/03 02:56:12;;;;;;;140.32;62.00;;;;;;;18.31;43.08;102654.25;4996798;28;20044;-73
2023/05/03 02:58:37;;;;;;;136.70;60.58;;;;;;;18.31;43.13;102658.66;4991095;28;20105;-73
2023/05/03 03:01:03;;;;;;;147.38;61.92;;;;;;;18.36;42.86;102662.09;4997990;28;20088;-72
2023/05/03 03:03:28;;;;;;;137.77;59.70;;;;;;;18.38;42.63;102655.88;5018206;28;20026;-72
2023/05/03 03:05:54;;;;;;;139.00;59.63;;;;;;;18.38;42.72;102658.53;4999344;28;20022;-74
2023/05/03 03:08:19;;;;;;;138.13;60.53;;;;;;;18.41;42.71;102661.13;5016773;28;20022;-73
2023/05/03 03:10:44;;;;;;;154.00;63.15;;;;;;;18.42;42.56;102664.66;5009496;28;20046;-72
2023/05/03 03:13:10;;;;;;;136.35;60.80;;;;;;;18.44;43.09;102659.31;4998982;28;20364;-72
2023/05/03 03:15:35;;;;;;;137.25;60.10;;;;;;;18.46;42.43;102657.50;5017281;28;20094;-73
2023/05/03 03:18:00;;;;;;;137.25;60.10;;;;;;;18.45;42.65;102655.75;4999968;28;20421;-72
2023/05/03 03:20:26;;;;;;;151.80;62.53;;;;;;;18.49;42.46;102657.47;5002236;28;21048;-73
2023/05/03 03:22:52;;;;;;;142.52;61.05;;;;;;;18.49;42.80;102657.47;5003349;28;20026;-73
2023/05/03 03:25:17;;;;;;;138.63;61.03;;;;;;;18.50;42.77;102659.19;5014264;28;20106;-73
2023/05/03 03:27:42;;;;;;;142.27;60.45;;;;;;;18.49;42.70;102657.47;5000382;28;20113;-72
2023/05/03 03:30:09;;;;;;;140.90;61.28;;;;;;;18.50;42.91;102664.50;5013048;28;20399;-72
2023/05/03 03:32:34;;;;;;;146.23;62.50;;;;;;;18.51;42.72;102658.31;4995266;28;20022;-72
2023/05/03 03:35:00;;;;;;;140.95;60.63;;;;;;;18.51;42.58;102666.25;5004927;28;20034;-73
2023/05/03 03:37:25;;;;;;;140.10;62.03;;;;;;;18.49;42.81;102660.97;4996673;28;20073;-72
2023/05/03 03:39:50;;;;;;;136.00;59.88;;;;;;;18.50;42.88;102664.50;4997164;28;20110;-72
2023/05/03 03:42:16;;;;;;;139.77;62.17;;;;;;;18.48;42.92;102658.38;5012496;28;20108;-73
2023/05/03 03:44:41;;;;;;;141.65;61.58;;;;;;;18.48;42.37;102653.09;5006702;28;20053;-73
2023/05/03 03:47:06;;;;;;;142.30;62.50;;;;;;;18.46;42.04;102658.41;5015753;28;20021;-73
2023/05/03 03:49:32;;;;;;;149.98;64.30;;;;;;;18.44;42.52;102660.19;5004028;28;20041;-73
2023/05/03 03:51:57;;;;;;;146.20;63.72;;;;;;;18.44;42.92;102656.69;5015924;28;20030;-73
2023/05/03 03:54:23;;;;;;;145.13;62.85;;;;;;;18.42;42.38;102662.88;4980348;28;20263;-73
2023/05/03 03:56:49;;;;;;;134.55;61.38;;;;;;;18.39;42.69;102652.34;5024908;28;20448;-74
2023/05/03 03:59:15;;;;;;;145.40;62.50;;;;;;;18.41;42.46;102650.53;4997481;28;20109;-74
2023/05/03 04:01:40;;;;;;;144.23;63.60;;;;;;;18.37;42.20;102648.84;5005638;28;20064;-74
2023/05/03 04:04:05;;;;;;;148.60;62.17;;;;;;;18.37;42.63;102653.28;4996448;28;20545;-73
2023/05/03 04:06:32;;;;;;;141.32;61.90;;;;;;;18.37;42.73;102651.50;4993529;28;21261;-72
2023/05/03 04:08:57;;;;;;;140.80;60.80;;;;;;;18.38;42.69;102655.88;5025839;28;20054;-73
2023/05/03 04:11:23;;;;;;;133.27;61.33;;;;;;;18.36;42.78;102649.72;5004353;28;20467;-74
2023/05/03 04:13:48;;;;;;;144.90;62.80;;;;;;;18.34;42.96;102659.47;5000083;28;20033;-73
2023/05/03 04:16:14;;;;;;;168.52;65.15;;;;;;;18.35;42.66;102655.06;5021527;28;20101;-72
2023/05/03 04:18:40;;;;;;;142.48;62.05;;;;;;;18.32;42.49;102650.69;5021582;28;20437;-72
2023/05/03 04:21:05;;;;;;;153.52;64.88;;;;;;;18.31;42.61;102659.56;5017429;28;20025;-73
2023/05/03 04:23:31;;;;;;;139.95;60.90;;;;;;;18.33;43.35;102663.03;5017494;28;20417;-73
2023/05/03 04:25:56;;;;;;;145.73;61.60;;;;;;;18.32;42.99;102661.28;5023358;28;20034;-72
2023/05/03 04:28:22;;;;;;;137.20;61.70;;;;;;;18.32;43.15;102661.28;5011798;28;20026;-72
2023/05/03 04:30:48;;;;;;;146.63;62.40;;;;;;;18.29;43.53;102658.69;4999980;28;20030;-72
2023/05/03 04:33:14;;;;;;;140.20;60.70;;;;;;;18.30;43.42;102657.78;5005195;28;20038;-72
2023/05/03 04:35:40;;;;;;;136.70;60.58;;;;;;;18.28;43.49;102658.72;5015957;28;20049;-73
2023/05/03 04:38:05;;;;;;;135.73;60.25;;;;;;;18.30;43.63;102662.22;5016625;28;20483;-73
2023/05/03 04:40:30;;;;;;;146.82;62.95;;;;;;;18.30;43.06;102668.38;4980114;28;20029;-72
2023/05/03 04:42:56;;;;;;;139.23;60.33;;;;;;;18.30;42.96;102668.38;5023305;28;20554;-72
2023/05/03 04:45:22;;;;;;;144.88;61.13;;;;;;;18.31;43.63;102675.41;5013535;28;20514;-71
2023/05/03 04:47:48;;;;;;;138.82;61.78;;;;;;;18.30;42.89;102673.66;5016112;28;20047;-72
2023/05/03 04:50:13;;;;;;;155.75;63.40;;;;;;;18.27;42.81;102673.72;4987549;28;20029;-72
2023/05/03 04:52:39;;;;;;;143.55;61.60;;;;;;;18.29;43.01;102682.50;5016930;28;20025;-73
2023/05/03 04:55:04;;;;;;;142.20;61.63;;;;;;;18.24;42.64;102679.94;5011558;28;21540;-72
2023/05/03 04:57:31;;;;;;;137.73;60.75;;;;;;;18.27;43.39;102683.41;5016180;28;20025;-73
2023/05/03 04:59:56;;;;;;;139.05;60.65;;;;;;;18.27;43.08;102683.41;5009816;28;20103;-73
2023/05/03 05:02:22;;;;;;;145.45;63.03;;;;;;;18.30;43.27;102691.31;5019019;28;20045;-73
2023/05/03 05:04:47;;;;;;;144.73;61.60;;;;;;;18.28;43.08;102707.19;5014845;28;20135;-73
2023/05/03 05:07:13;;;;;;;137.68;64.15;;;;;;;18.30;42.34;102697.47;5009956;28;20018;-72
2023/05/03 05:09:38;;;;;;;145.38;61.45;;;;;;;18.34;42.87;102700.94;4995398;28;20550;-73
2023/05/03 05:12:04;;;;;;;142.35;60.50;;;;;;;18.35;42.87;102698.28;5015429;28;20596;-73
2023/05/03 05:14:30;;;;;;;140.63;60.42;;;;;;;18.41;42.84;102702.59;4986870;28;20026;-73
2023/05/03 05:16:56;;;;;;;143.73;62.78;;;;;;;18.48;42.44;102708.66;4998956;28;20467;-72
2023/05/03 05:19:21;;;;;;;140.07;62.60;;;;;;;18.52;42.35;102705.03;5004085;28;20105;-73
2023/05/03 05:21:47;;;;;;;145.73;61.25;;;;;;;18.54;42.09;102708.53;5020828;28;20034;-73
2023/05/03 05:24:12;;;;;;;143.60;62.85;;;;;;;18.59;41.91;102711.97;5019254;28;20026;-73
2023/05/03 05:26:37;;;;;;;140.25;61.90;;;;;;;18.59;42.06;102702.25;5019751;28;20030;-73
2023/05/03 05:29:03;;;;;;;138.63;61.97;;;;;;;18.64;42.23;102715.41;5018618;28;20479;-73
2023/05/03 05:31:28;;;;;;;140.25;62.08;;;;;;;18.65;42.49;102714.50;5020189;28;20093;-73
2023/05/03 05:33:53;;;;;;;135.73;63.05;;;;;;;18.67;41.79;102718.00;5006808;28;20452;-72
2023/05/03 05:36:19;;;;;;;148.48;62.88;;;;;;;18.69;41.78;102718.84;5014526;28;20022;-72
2023/05/03 05:38:44;;;;;;;145.68;65.78;;;;;;;18.71;42.04;102718.81;5016367;28;20479;-72
2023/05/03 05:41:10;;;;;;;140.95;63.42;;;;;;;18.72;42.07;102718.78;5017841;28;20089;-72
2023/05/03 05:43:36;;;;;;;141.23;62.53;;;;;;;18.72;41.95;102710.84;5025240;28;20071;-72
2023/05/03 05:46:01;;;;;;;146.63;64.85;;;;;;;18.75;42.33;102716.06;5016540;28;20046;-73
2023/05/03 05:48:26;;;;;;;148.82;64.93;;;;;;;18.81;41.87;102730.09;5007733;28;20026;-73
2023/05/03 05:50:52;;;;;;;144.48;68.70;;;;;;;18.84;41.66;102723.00;5016536;28;20415;-73
2023/05/03 05:53:17;;;;;;;152.18;64.43;;;;;;;18.88;41.78;102724.72;5007558;28;20022;-73
2023/05/03 05:55:42;;;;;;;141.27;64.72;;;;;;;18.94;41.82;102734.31;5002407;28;20080;-73
2023/05/03 05:58:08;;;;;;;140.75;63.08;;;;;;;18.98;41.45;102730.69;5016596;28;20025;-73
2023/05/03 06:00:34;;;;;;;145.80;66.15;;;;;;;19.02;41.61;102726.19;5011054;28;20408;-73
2023/05/03 06:03:00;;;;;;;139.93;62.92;;;;;;;19.11;41.44;102733.09;5023556;28;20490;-73
2023/05/03 06:05:25;;;;;;;144.70;64.78;;;;;;;19.12;41.24;102725.13;5006441;28;20156;-73
2023/05/03 06:07:50;;;;;;;145.65;63.80;;;;;;;19.16;41.50;102725.94;5015586;28;20548;-73
2023/05/03 06:10:16;;;;;;;141.50;61.75;;;;;;;19.18;41.17;102737.38;5020498;28;20025;-73
2023/05/03 06:12:41;;;;;;;138.10;61.45;;;;;;;19.18;40.73;102735.59;5021471;28;20036;-73
2023/05/03 06:15:07;;;;;;;147.45;63.15;;;;;;;19.24;41.22;102737.25;5005968;28;20018;-73
2023/05/03 06:17:33;;;;;;;145.77;62.33;;;;;;;19.29;40.69;102735.34;5005052;28;20021;-72
2023/05/03 06:19:59;;;;;;;143.40;62.20;;;;;;;19.30;41.10;102734.47;4991165;28;20026;-73
2023/05/03 06:22:24;;;;;;;141.35;61.53;;;;;;;19.36;40.61;102737.00;5019666;28;20033;-73
2023/05/03 06:24:50;;;;;;;149.70;64.88;;;;;;;19.36;40.45;102739.66;5016502;28;20076;-73
2023/05/03 06:27:15;;;;;;;151.27;63.45;;;;;;;19.41;40.85;102745.72;4997995;28;20029;-72
2023/05/03 06:29:43;;;;;;;149.25;64.78;;;;;;;19.42;40.17;102744.81;5007876;28;20112;-73
2023/05/03 06:32:08;;;;;;;145.38;64.03;;;;;;;19.43;40.34;102743.91;5021811;28;20483;-73
2023/05/03 06:34:33;;;;;;;146.88;63.78;;;;;;;19.45;40.43;102740.38;5015090;28;20124;-73
2023/05/03 06:36:59;;;;;;;141.23;62.30;;;;;;;19.47;40.31;102749.13;5021651;28;20055;-73
2023/05/03 06:39:24;;;;;;;138.15;61.85;;;;;;;19.50;40.67;102749.09;5006210;28;20075;-73
2023/05/03 06:41:50;;;;;;;142.70;62.80;;;;;;;19.54;40.60;102742.81;5016439;28;20034;-73
2023/05/03 06:44:15;;;;;;;166.35;65.90;;;;;;;19.64;39.77;102744.34;5015498;28;20034;-74
2023/05/03 06:46:41;;;;;;;141.48;61.20;;;;;;;19.71;39.88;102743.28;5016701;28;20097;-74
2023/05/03 06:49:07;;;;;;;139.48;61.53;;;;;;;19.75;39.80;102734.38;5022697;28;20040;-73
2023/05/03 06:51:32;;;;;;;141.40;61.97;;;;;;;19.84;39.43;102737.78;5035886;22;20038;-75
2023/05/03 06:54:05;;;;;;;158.18;62.92;;;;;;;19.90;39.57;102745.56;5027356;28;20086;-73
2023/05/03 06:56:35;;;;;;;139.98;61.53;;;;;;;20.03;39.03;102739.09;5027961;28;20513;-75
2023/05/03 06:59:01;;;;;;;143.13;61.00;;;;;;;20.12;39.18;102742.44;5032280;28;20028;-75
2023/05/03 07:01:26;;;;;;;140.20;60.58;;;;;;;20.12;38.68;102745.06;5028507;28;20552;-73
2023/05/03 07:03:52;;;;;;;153.68;63.38;;;;;;;20.05;38.66;102747.00;5026446;28;20036;-73
2023/05/03 07:06:17;;;;;;;136.77;61.53;;;;;;;19.96;39.51;102742.81;5027447;28;20030;-73
2023/05/03 07:08:43;;;;;;;152.55;62.30;;;;;;;19.87;39.30;102748.31;5032883;28;20471;-73
2023/05/03 07:11:08;;;;;;;141.00;61.35;;;;;;;19.76;39.68;102746.72;5036109;28;20116;-73
2023/05/03 07:13:34;;;;;;;147.85;61.40;;;;;;;19.64;39.84;102746.13;5030035;28;20059;-72
2023/05/03 07:15:59;;;;;;;141.23;60.33;;;;;;;19.57;39.76;102750.69;5026088;28;20063;-74
2023/05/03 07:18:25;;;;;;;136.98;60.75;;;;;;;19.54;39.54;102754.28;5013746;28;20025;-73
2023/05/03 07:20:51;;;;;;;141.07;60.85;;;;;;;19.52;39.83;102756.06;5012892;28;20037;-73
2023/05/03 07:23:16;;;;;;;137.85;61.15;;;;;;;19.53;39.54;102759.63;5031003;28;20483;-74
2023/05/03 07:25:42;;;;;;;139.82;60.33;;;;;;;19.54;39.53;102762.22;5028066;28;20028;-74
2023/05/03 07:28:07;;;;;;;132.98;58.85;;;;;;;19.51;39.89;102766.72;5023637;28;20025;-74
2023/05/03 07:30:33;;;;;;;144.18;62.38;;;;;;;19.44;40.18;102760.66;5029768;28;20148;-74
2023/05/03 07:32:58;;;;;;;137.25;59.15;;;;;;;19.42;40.10;102760.69;5030338;28;20035;-74
2023/05/03 07:35:25;;;;;;;135.02;58.75;;;;;;;19.38;40.25;102750.22;5029054;28;20043;-74
2023/05/03 07:37:50;;;;;;;136.40;58.42;;;;;;;19.33;40.02;102752.06;5029548;28;20025;-73
2023/05/03 07:40:16;;;;;;;136.23;60.30;;;;;;;19.29;40.22;102766.28;5029299;28;20363;-73
2023/05/03 07:42:41;;;;;;;136.20;58.67;;;;;;;19.26;40.00;102767.22;5013591;28;20053;-73
2023/05/03 07:45:07;;;;;;;139.63;60.50;;;;;;;19.26;40.19;102756.63;5007283;28;20053;-73
2023/05/03 07:47:36;;;;;;;135.13;58.92;;;;;;;19.29;40.63;102751.25;5035745;28;20025;-73
2023/05/03 07:50:03;;;;;;;133.35;58.85;;;;;;;19.36;40.08;102744.94;5036616;28;20068;-74
2023/05/03 07:52:29;;;;;;;141.43;59.25;;;;;;;19.46;39.64;102753.56;5023862;28;20025;-72
2023/05/03 07:54:54;;;;;;;140.88;59.65;;;;;;;19.41;40.11;102753.69;5026009;28;20041;-75
2023/05/03 07:57:22;;;;;;;153.60;61.42;;;;;;;19.36;40.13;102752.91;5040165;28;20052;-74
2023/05/03 07:59:47;;;;;;;141.00;59.35;;;;;;;19.33;40.53;102752.94;5043224;28;20025;-74
2023/05/03 08:02:13;;;;;;;138.02;59.13;;;;;;;19.34;40.30;102754.69;5046188;28;20022;-72
2023/05/03 08:04:38;;;;;;;158.15;61.50;;;;;;;19.38;39.68;102752.88;5039962;28;20033;-73
2023/05/03 08:07:04;;;;;;;136.55;59.90;;;;;;;19.41;40.26;102753.69;5022641;28;20025;-73
2023/05/03 08:09:29;;;;;;;141.77;60.10;;;;;;;19.53;39.85;102749.88;5034848;28;22141;-73
2023/05/03 08:11:55;;;;;;;138.43;59.00;;;;;;;19.89;39.80;102757.09;5021882;28;20026;-74
2023/05/03 08:14:24;;;;;;;176.15;64.00;;;;;;;20.07;39.35;102758.47;5031997;28;20608;-72
2023/05/03 08:16:50;;;;;;;146.75;60.42;;;;;;;19.99;39.07;102763.94;5034511;28;20435;-73
2023/05/03 08:19:15;;;;;;;135.02;58.17;;;;;;;19.84;38.75;102764.28;5018101;28;20102;-73
2023/05/03 08:21:41;;;;;;;151.18;60.53;;;;;;;19.72;39.56;102749.50;5033327;28;20105;-73
2023/05/03 08:24:08;;;;;;;149.02;59.97;;;;;;;19.64;39.22;102747.00;5035839;28;20033;-72
2023/05/03 08:26:34;;;;;;;138.77;58.75;;;;;;;19.60;40.22;102755.91;5035488;28;20057;-72
2023/05/03 08:29:02;;;;;;;148.13;61.15;;;;;;;19.54;39.83;102756.94;5033806;28;20061;-73
2023/05/03 08:31:27;;;;;;;149.45;62.10;;;;;;;19.50;39.63;102759.69;5016109;28;20033;-73
2023/05/03 08:33:53;;;;;;;143.05;61.00;;;;;;;19.46;40.13;102761.53;5034385;28;20022;-72
2023/05/03 08:36:18;;;;;;;133.65;59.55;;;;;;;19.42;39.87;102758.06;5022178;28;20382;-73
2023/05/03 08:38:43;;;;;;;141.43;60.33;;;;;;;19.38;40.55;102769.63;5033215;28;20068;-74
2023/05/03 08:41:26;;;;;;;141.27;60.53;;;;;;;19.35;40.34;102758.22;5031118;28;20025;-72
2023/05/03 08:43:53;;;;;;;139.80;59.47;;;;;;;19.34;40.35;102759.13;5014643;28;20031;-74
2023/05/03 08:46:19;;;;;;;137.40;59.67;;;;;;;19.30;40.57;102768.91;5032836;28;20449;-73
2023/05/03 08:48:47;;;;;;;138.38;61.33;;;;;;;19.30;40.26;102758.31;5016891;28;20075;-74
2023/05/03 08:51:13;;;;;;;138.15;60.75;;;;;;;19.29;40.29;102764.50;5032858;28;20113;-74
2023/05/03 08:53:38;;;;;;;135.23;59.83;;;;;;;19.28;40.50;102776.03;5032288;28;20026;-74
2023/05/03 08:56:11;;;;;;;133.95;59.03;;;;;;;19.27;40.43;102768.97;5034191;28;20029;-74
2023/05/03 08:58:37;;;;;;;138.05;60.33;;;;;;;19.29;40.36;102776.88;5016629;28;20021;-74
2023/05/03 09:01:08;;;;;;;133.65;58.30;;;;;;;19.27;39.94;102776.06;5016725;28;20025;-73
2023/05/03 09:03:34;;;;;;;136.55;59.97;;;;;;;19.27;40.20;102774.28;5033108;28;20021;-74
2023/05/03 09:06:00;;;;;;;140.65;61.45;;;;;;;19.32;40.08;102777.72;5032883;28;20032;-74
2023/05/03 09:08:26;;;;;;;135.18;59.97;;;;;;;19.37;40.27;102781.16;5033169;28;20087;-75
2023/05/03 09:10:52;;;;;;;137.30;59.90;;;;;;;19.46;40.29;102769.47;5033117;28;20034;-74
2023/05/03 09:13:17;;;;;;;145.73;62.42;;;;;;;19.59;39.70;102781.56;5016569;28;20447;-74
2023/05/03 09:15:45;;;;;;;138.55;60.42;;;;;;;19.76;39.53;102778.53;5016240;28;20025;-74
2023/05/03 09:18:18;;;;;;;133.13;57.67;;;;;;;19.95;38.79;102785.25;5033128;28;20482;-74
2023/05/03 09:20:50;;;;;;;138.15;59.60;;;;;;;20.19;38.22;102781.16;5032841;28;20146;-74
2023/05/03 09:23:16;;;;;;;135.85;59.08;;;;;;;20.42;38.04;102772.63;5017356;28;20064;-73
2023/05/03 09:25:47;;;;;;;139.02;59.58;;;;;;;20.63;37.59;102757.97;5032506;28;20018;-74
2023/05/03 09:28:14;;;;;;;166.77;65.30;;;;;;;20.82;37.38;102752.19;5032786;28;20068;-74
2023/05/03 09:30:39;;;;;;;135.55;60.72;;;;;;;20.82;37.08;102763.69;5033079;28;20032;-74
2023/05/03 09:33:05;;;;;;;128.07;58.88;;;;;;;20.77;37.08;102763.78;5016340;28;20034;-74
2023/05/03 09:35:33;;;;;;;135.52;59.92;;;;;;;20.70;37.12;102778.16;5047900;28;20021;-74
2023/05/03 09:37:59;;;;;;;140.60;61.33;;;;;;;20.62;37.18;102772.13;5054224;28;20010;-74
2023/05/03 09:40:25;;;;;;;137.30;61.97;;;;;;;20.53;37.92;102775.03;5032508;28;20033;-73
2023/05/03 09:43:11;;;;;;;137.20;60.88;;;;;;;20.40;37.53;102774.47;5054733;28;20017;-74
2023/05/03 09:45:37;;;;;;;138.05;60.55;;;;;;;20.33;38.25;102772.84;5053529;28;20030;-73
2023/05/03 09:48:03;;;;;;;140.15;61.70;;;;;;;20.25;38.09;102767.75;5043051;28;20379;-73
2023/05/03 09:50:31;;;;;;;137.52;60.78;;;;;;;20.21;38.05;102768.75;5032469;28;20021;-74
2023/05/03 09:52:58;;;;;;;135.98;60.05;;;;;;;20.17;38.22;102775.03;5033123;28;20056;-74
2023/05/03 09:55:24;;;;;;;134.32;60.05;;;;;;;20.10;38.58;102767.19;5032669;28;20108;-75
2023/05/03 09:57:53;;;;;;;138.30;60.28;;;;;;;20.07;38.65;102769.94;5031252;28;20116;-75
2023/05/03 10:00:19;;;;;;;134.30;59.22;;;;;;;20.05;37.98;102773.53;5015382;28;20021;-74
2023/05/03 10:02:46;;;;;;;135.68;58.72;;;;;;;20.02;38.27;102774.47;5029089;28;20383;-75
2023/05/03 10:05:12;;;;;;;147.07;61.50;;;;;;;19.99;38.78;102773.66;5013817;28;20076;-74
2023/05/03 10:07:39;;;;;;;139.98;60.33;;;;;;;19.99;38.32;102765.69;5032098;28;20022;-73
2023/05/03 10:10:06;;;;;;;135.10;59.13;;;;;;;19.97;38.21;102771.03;5014543;28;20049;-73
2023/05/03 10:12:34;;;;;;;131.75;57.80;;;;;;;19.95;38.00;102766.69;5032062;28;20030;-73
2023/05/03 10:15:00;;;;;;;139.68;59.88;;;;;;;19.93;38.56;102766.72;5031554;28;20060;-74
2023/05/03 10:17:29;;;;;;;136.95;59.78;;;;;;;19.90;38.34;102761.50;5015352;28;20022;-74
2023/05/03 10:20:19;;;;;;;141.35;59.78;;;;;;;19.87;38.39;102758.91;5015582;28;20048;-74
2023/05/03 10:23:03;;;;;;;134.23;58.50;;;;;;;19.84;37.64;102754.56;5031993;28;20087;-74
2023/05/03 10:25:29;;;;;;;132.35;57.95;;;;;;;19.81;38.57;102764.34;5032509;28;20108;-74
2023/05/03 10:28:01;;;;;;;136.25;57.92;;;;;;;19.76;38.49;102757.31;5032931;28;20030;-74
2023/05/03 10:30:31;;;;;;;138.43;57.85;;;;;;;19.73;38.53;102752.09;5032902;28;20018;-74
2023/05/03 10:32:58;;;;;;;133.60;58.13;;;;;;;19.71;38.42;102753.91;5031724;28;20036;-74
2023/05/03 10:35:28;;;;;;;138.40;56.78;;;;;;;19.71;38.54;102745.94;5031204;28;20506;-74
2023/05/03 10:37:55;;;;;;;138.85;57.75;;;;;;;19.74;38.25;102740.59;5031412;28;20398;-73
2023/05/03 10:40:21;;;;;;;125.03;54.88;;;;;;;19.75;37.79;102733.50;5031445;28;20029;-74
2023/05/03 10:42:55;;;;;;;138.50;56.78;;;;;;;19.82;38.40;102739.56;5031484;28;20104;-74
2023/05/03 10:45:27;;;;;;;134.00;55.70;;;;;;;19.91;37.98;102737.59;5014605;28;20022;-74
2023/05/03 10:48:19;;;;;;;132.82;55.17;;;;;;;19.99;37.68;102742.72;5031325;28;20063;-74
2023/05/03 10:50:44;;;;;;;135.50;56.08;;;;;;;20.04;38.09;102738.19;5032401;28;20044;-74
2023/05/03 10:53:32;;;;;;;134.75;55.65;;;;;;;20.05;37.65;102742.56;5031117;28;20486;-73
2023/05/03 10:56:07;;;;;;;134.95;56.58;;;;;;;20.06;37.58;102733.69;5032549;28;20413;-73
2023/05/03 10:58:41;;;;;;;132.38;55.83;;;;;;;20.02;37.77;102732.03;5031408;28;20073;-74
2023/05/03 11:01:08;;;;;;;132.15;56.03;;;;;;;19.99;37.48;102734.75;5014456;28;20124;-74